sensor_id;sensor_type;location;lat;lon;timestamp;temperature;humidity
1025;DHT22;501;48.214;11.350;2024-02-23T00:02:12;8.40;53.90
1025;DHT22;501;48.214;11.350;2024-02-23T00:04:37;8.40;52.90
1025;DHT22;501;48.214;11.350;2024-02-23T00:07:03;8.30;54.60
1025;DHT22;501;48.214;11.350;2024-02-23T00:09:29;8.30;54.50
1025;DHT22;501;48.214;11.350;2024-02-23T00:11:54;8.20;54.70
1025;DHT22;501;48.214;11.350;2024-02-23T00:14:20;8.20;54.90
1025;DHT22;501;48.214;11.350;2024-02-23T00:16:46;8.20;53.70
1025;DHT22;501;48.214;11.350;2024-02-23T00:19:13;8.20;51.90
1025;DHT22;501;48.214;11.350;2024-02-23T00:21:39;8.20;52.40
1025;DHT22;501;48.214;11.350;2024-02-23T00:24:06;8.20;51.90
1025;DHT22;501;48.214;11.350;2024-02-23T00:26:31;8.20;51.80
1025;DHT22;501;48.214;11.350;2024-02-23T00:28:57;8.10;52.00
1025;DHT22;501;48.214;11.350;2024-02-23T00:31:23;8.10;51.50
1025;DHT22;501;48.214;11.350;2024-02-23T00:33:49;8.10;52.10
1025;DHT22;501;48.214;11.350;2024-02-23T00:36:14;8.10;50.50
1025;DHT22;501;48.214;11.350;2024-02-23T00:38:40;8.10;49.00
1025;DHT22;501;48.214;11.350;2024-02-23T00:41:05;8.10;48.30
1025;DHT22;501;48.214;11.350;2024-02-23T00:43:40;8.10;48.70
1025;DHT22;501;48.214;11.350;2024-02-23T00:46:07;8.10;48.30
1025;DHT22;501;48.214;11.350;2024-02-23T00:48:33;8.10;48.40
1025;DHT22;501;48.214;11.350;2024-02-23T00:50:59;8.00;48.90
1025;DHT22;501;48.214;11.350;2024-02-23T00:53:25;8.00;50.20
1025;DHT22;501;48.214;11.350;2024-02-23T00:55:50;8.00;48.90
1025;DHT22;501;48.214;11.350;2024-02-23T00:58:16;8.00;48.30
1025;DHT22;501;48.214;11.350;2024-02-23T01:00:42;7.90;48.20
1025;DHT22;501;48.214;11.350;2024-02-23T01:03:07;7.90;45.30
1025;DHT22;501;48.214;11.350;2024-02-23T01:05:33;7.90;46.20
1025;DHT22;501;48.214;11.350;2024-02-23T01:07:59;7.90;45.60
1025;DHT22;501;48.214;11.350;2024-02-23T01:10:24;7.90;45.50
1025;DHT22;501;48.214;11.350;2024-02-23T01:12:50;7.90;45.10
1025;DHT22;501;48.214;11.350;2024-02-23T01:15:16;7.90;45.40
1025;DHT22;501;48.214;11.350;2024-02-23T01:17:41;7.90;45.00
1025;DHT22;501;48.214;11.350;2024-02-23T01:20:07;7.90;45.30
1025;DHT22;501;48.214;11.350;2024-02-23T01:22:33;7.90;44.60
1025;DHT22;501;48.214;11.350;2024-02-23T01:24:59;7.90;46.30
1025;DHT22;501;48.214;11.350;2024-02-23T01:27:24;7.90;45.00
1025;DHT22;501;48.214;11.350;2024-02-23T01:29:50;7.90;45.20
1025;DHT22;501;48.214;11.350;2024-02-23T01:32:15;7.90;45.10
1025;DHT22;501;48.214;11.350;2024-02-23T01:34:41;7.90;45.30
1025;DHT22;501;48.214;11.350;2024-02-23T01:37:07;7.80;45.90
1025;DHT22;501;48.214;11.350;2024-02-23T01:39:32;7.80;45.10
1025;DHT22;501;48.214;11.350;2024-02-23T01:41:58;7.80;44.30
1025;DHT22;501;48.214;11.350;2024-02-23T01:44:24;7.80;45.30
1025;DHT22;501;48.214;11.350;2024-02-23T01:46:50;7.80;45.20
1025;DHT22;501;48.214;11.350;2024-02-23T01:49:17;7.80;44.70
1025;DHT22;501;48.214;11.350;2024-02-23T01:51:43;7.70;44.60
1025;DHT22;501;48.214;11.350;2024-02-23T01:54:09;7.70;44.80
1025;DHT22;501;48.214;11.350;2024-02-23T01:56:36;7.70;44.90
1025;DHT22;501;48.214;11.350;2024-02-23T01:59:05;7.60;43.60
1025;DHT22;501;48.214;11.350;2024-02-23T02:01:31;7.60;44.50
1025;DHT22;501;48.214;11.350;2024-02-23T02:03:58;7.60;43.80
1025;DHT22;501;48.214;11.350;2024-02-23T02:06:24;7.60;45.00
1025;DHT22;501;48.214;11.350;2024-02-23T02:08:50;7.50;44.60
1025;DHT22;501;48.214;11.350;2024-02-23T02:11:16;7.50;44.40
1025;DHT22;501;48.214;11.350;2024-02-23T02:13:41;7.50;44.30
1025;DHT22;501;48.214;11.350;2024-02-23T02:16:07;7.50;44.70
1025;DHT22;501;48.214;11.350;2024-02-23T02:18:33;7.40;45.70
1025;DHT22;501;48.214;11.350;2024-02-23T02:20:59;7.40;45.90
1025;DHT22;501;48.214;11.350;2024-02-23T02:23:27;7.30;46.20
1025;DHT22;501;48.214;11.350;2024-02-23T02:25:54;7.30;45.90
1025;DHT22;501;48.214;11.350;2024-02-23T02:28:20;7.30;46.80
1025;DHT22;501;48.214;11.350;2024-02-23T02:30:49;7.30;46.60
1025;DHT22;501;48.214;11.350;2024-02-23T02:33:15;7.30;46.00
1025;DHT22;501;48.214;11.350;2024-02-23T02:35:41;7.30;46.90
1025;DHT22;501;48.214;11.350;2024-02-23T02:38:06;7.30;45.70
1025;DHT22;501;48.214;11.350;2024-02-23T02:40:32;7.30;45.00
1025;DHT22;501;48.214;11.350;2024-02-23T02:42:58;7.30;46.10
1025;DHT22;501;48.214;11.350;2024-02-23T02:45:23;7.20;45.70
1025;DHT22;501;48.214;11.350;2024-02-23T02:47:49;7.20;45.60
1025;DHT22;501;48.214;11.350;2024-02-23T02:50:15;7.20;45.40
1025;DHT22;501;48.214;11.350;2024-02-23T02:52:41;7.20;46.00
1025;DHT22;501;48.214;11.350;2024-02-23T02:55:07;7.20;46.70
1025;DHT22;501;48.214;11.350;2024-02-23T02:57:33;7.20;45.80
1025;DHT22;501;48.214;11.350;2024-02-23T03:00:04;7.20;46.80
1025;DHT22;501;48.214;11.350;2024-02-23T03:02:37;7.30;46.30
1025;DHT22;501;48.214;11.350;2024-02-23T03:05:02;7.20;45.70
1025;DHT22;501;48.214;11.350;2024-02-23T03:07:28;7.20;47.60
1025;DHT22;501;48.214;11.350;2024-02-23T03:09:54;7.20;47.00
1025;DHT22;501;48.214;11.350;2024-02-23T03:12:20;7.20;46.60
1025;DHT22;501;48.214;11.350;2024-02-23T03:14:46;7.20;46.00
1025;DHT22;501;48.214;11.350;2024-02-23T03:17:11;7.20;46.30
1025;DHT22;501;48.214;11.350;2024-02-23T03:19:38;7.20;46.70
1025;DHT22;501;48.214;11.350;2024-02-23T03:22:07;7.20;46.90
1025;DHT22;501;48.214;11.350;2024-02-23T03:24:33;7.20;47.20
1025;DHT22;501;48.214;11.350;2024-02-23T03:26:59;7.10;49.40
1025;DHT22;501;48.214;11.350;2024-02-23T03:29:24;7.00;51.40
1025;DHT22;501;48.214;11.350;2024-02-23T03:31:50;7.00;53.40
1025;DHT22;501;48.214;11.350;2024-02-23T03:34:16;6.90;53.70
1025;DHT22;501;48.214;11.350;2024-02-23T03:36:43;6.90;53.80
1025;DHT22;501;48.214;11.350;2024-02-23T03:39:08;6.80;54.70
1025;DHT22;501;48.214;11.350;2024-02-23T03:41:34;6.70;55.40
1025;DHT22;501;48.214;11.350;2024-02-23T03:43:59;6.60;55.70
1025;DHT22;501;48.214;11.350;2024-02-23T03:46:25;6.60;55.80
1025;DHT22;501;48.214;11.350;2024-02-23T03:48:51;6.50;56.00
1025;DHT22;501;48.214;11.350;2024-02-23T03:51:17;6.50;56.60
1025;DHT22;501;48.214;11.350;2024-02-23T03:53:43;6.40;58.00
1025;DHT22;501;48.214;11.350;2024-02-23T03:56:09;6.40;58.10
1025;DHT22;501;48.214;11.350;2024-02-23T03:58:34;6.40;58.20
1025;DHT22;501;48.214;11.350;2024-02-23T04:01:00;6.40;58.50
1025;DHT22;501;48.214;11.350;2024-02-23T04:03:25;6.40;57.50
1025;DHT22;501;48.214;11.350;2024-02-23T04:05:51;6.50;57.70
1025;DHT22;501;48.214;11.350;2024-02-23T04:08:17;6.50;57.70
1025;DHT22;501;48.214;11.350;2024-02-23T04:10:42;6.50;56.70
1025;DHT22;501;48.214;11.350;2024-02-23T04:13:08;6.50;56.80
1025;DHT22;501;48.214;11.350;2024-02-23T04:15:34;6.50;57.00
1025;DHT22;501;48.214;11.350;2024-02-23T04:17:59;6.50;57.20
1025;DHT22;501;48.214;11.350;2024-02-23T04:20:25;6.50;57.10
1025;DHT22;501;48.214;11.350;2024-02-23T04:22:51;6.60;57.50
1025;DHT22;501;48.214;11.350;2024-02-23T04:25:16;6.60;58.00
1025;DHT22;501;48.214;11.350;2024-02-23T04:27:42;6.60;55.70
1025;DHT22;501;48.214;11.350;2024-02-23T04:30:11;6.50;53.60
1025;DHT22;501;48.214;11.350;2024-02-23T04:32:37;6.40;54.60
1025;DHT22;501;48.214;11.350;2024-02-23T04:35:02;6.30;55.40
1025;DHT22;501;48.214;11.350;2024-02-23T04:37:28;6.30;55.90
1025;DHT22;501;48.214;11.350;2024-02-23T04:39:54;6.30;55.30
1025;DHT22;501;48.214;11.350;2024-02-23T04:42:19;6.20;55.30
1025;DHT22;501;48.214;11.350;2024-02-23T04:44:45;6.20;53.70
1025;DHT22;501;48.214;11.350;2024-02-23T04:47:11;6.20;51.70
1025;DHT22;501;48.214;11.350;2024-02-23T04:49:37;6.20;51.80
1025;DHT22;501;48.214;11.350;2024-02-23T04:52:04;6.20;50.20
1025;DHT22;501;48.214;11.350;2024-02-23T04:54:30;6.10;51.10
1025;DHT22;501;48.214;11.350;2024-02-23T04:56:56;6.10;51.00
1025;DHT22;501;48.214;11.350;2024-02-23T04:59:21;6.10;51.10
1025;DHT22;501;48.214;11.350;2024-02-23T05:01:47;6.20;52.40
1025;DHT22;501;48.214;11.350;2024-02-23T05:04:13;6.20;52.30
1025;DHT22;501;48.214;11.350;2024-02-23T05:06:38;6.20;52.90
1025;DHT22;501;48.214;11.350;2024-02-23T05:09:05;6.30;53.10
1025;DHT22;501;48.214;11.350;2024-02-23T05:11:34;6.20;52.00
1025;DHT22;501;48.214;11.350;2024-02-23T05:14:00;6.30;53.10
1025;DHT22;501;48.214;11.350;2024-02-23T05:16:26;6.30;52.40
1025;DHT22;501;48.214;11.350;2024-02-23T05:18:51;6.30;52.40
1025;DHT22;501;48.214;11.350;2024-02-23T05:21:17;6.30;52.30
1025;DHT22;501;48.214;11.350;2024-02-23T05:23:43;6.30;52.50
1025;DHT22;501;48.214;11.350;2024-02-23T05:26:08;6.30;52.80
1025;DHT22;501;48.214;11.350;2024-02-23T05:28:34;6.30;52.80
1025;DHT22;501;48.214;11.350;2024-02-23T05:31:02;6.20;52.90
1025;DHT22;501;48.214;11.350;2024-02-23T05:33:29;6.20;54.00
1025;DHT22;501;48.214;11.350;2024-02-23T05:35:54;6.20;53.40
1025;DHT22;501;48.214;11.350;2024-02-23T05:38:20;6.20;54.40
1025;DHT22;501;48.214;11.350;2024-02-23T05:40:46;6.20;53.80
1025;DHT22;501;48.214;11.350;2024-02-23T05:43:13;6.20;55.00
1025;DHT22;501;48.214;11.350;2024-02-23T05:45:39;6.30;55.40
1025;DHT22;501;48.214;11.350;2024-02-23T05:48:06;6.30;54.70
1025;DHT22;501;48.214;11.350;2024-02-23T05:50:32;6.30;54.70
1025;DHT22;501;48.214;11.350;2024-02-23T05:52:58;6.30;54.50
1025;DHT22;501;48.214;11.350;2024-02-23T05:55:24;6.30;54.50
1025;DHT22;501;48.214;11.350;2024-02-23T05:57:49;6.40;54.40
1025;DHT22;501;48.214;11.350;2024-02-23T06:00:17;6.40;54.40
1025;DHT22;501;48.214;11.350;2024-02-23T06:02:44;6.50;54.30
1025;DHT22;501;48.214;11.350;2024-02-23T06:05:11;6.50;54.00
1025;DHT22;501;48.214;11.350;2024-02-23T06:07:37;6.50;53.40
1025;DHT22;501;48.214;11.350;2024-02-23T06:10:03;6.50;53.60
1025;DHT22;501;48.214;11.350;2024-02-23T06:12:29;6.40;53.60
1025;DHT22;501;48.214;11.350;2024-02-23T06:14:55;6.40;53.70
1025;DHT22;501;48.214;11.350;2024-02-23T06:17:24;6.30;52.90
1025;DHT22;501;48.214;11.350;2024-02-23T06:19:49;6.20;51.70
1025;DHT22;501;48.214;11.350;2024-02-23T06:22:15;6.20;52.60
1025;DHT22;501;48.214;11.350;2024-02-23T06:24:49;6.20;52.50
1025;DHT22;501;48.214;11.350;2024-02-23T06:27:14;6.30;52.50
1025;DHT22;501;48.214;11.350;2024-02-23T06:29:40;6.30;52.20
1025;DHT22;501;48.214;11.350;2024-02-23T06:32:06;6.20;51.20
1025;DHT22;501;48.214;11.350;2024-02-23T06:34:31;6.30;50.30
1025;DHT22;501;48.214;11.350;2024-02-23T06:36:57;6.20;50.40
1025;DHT22;501;48.214;11.350;2024-02-23T06:39:23;6.20;49.60
1025;DHT22;501;48.214;11.350;2024-02-23T06:41:49;6.10;49.10
1025;DHT22;501;48.214;11.350;2024-02-23T06:44:14;6.20;49.30
1025;DHT22;501;48.214;11.350;2024-02-23T06:46:40;6.20;49.60
1025;DHT22;501;48.214;11.350;2024-02-23T06:49:07;6.20;49.80
1025;DHT22;501;48.214;11.350;2024-02-23T06:51:32;6.20;47.80
1025;DHT22;501;48.214;11.350;2024-02-23T06:53:58;6.20;49.10
1025;DHT22;501;48.214;11.350;2024-02-23T06:56:24;6.20;47.70
1025;DHT22;501;48.214;11.350;2024-02-23T06:58:49;6.20;48.30
1025;DHT22;501;48.214;11.350;2024-02-23T07:01:15;6.20;47.50
1025;DHT22;501;48.214;11.350;2024-02-23T07:03:41;6.20;47.40
1025;DHT22;501;48.214;11.350;2024-02-23T07:06:08;6.20;47.90
1025;DHT22;501;48.214;11.350;2024-02-23T07:08:37;6.20;48.40
1025;DHT22;501;48.214;11.350;2024-02-23T07:11:03;6.20;48.60
1025;DHT22;501;48.214;11.350;2024-02-23T07:13:28;6.20;48.30
1025;DHT22;501;48.214;11.350;2024-02-23T07:15:55;6.20;47.60
1025;DHT22;501;48.214;11.350;2024-02-23T07:18:21;6.20;46.80
1025;DHT22;501;48.214;11.350;2024-02-23T07:20:47;6.30;47.20
1025;DHT22;501;48.214;11.350;2024-02-23T07:23:13;6.30;46.90
1025;DHT22;501;48.214;11.350;2024-02-23T07:25:39;6.30;46.80
1025;DHT22;501;48.214;11.350;2024-02-23T07:28:04;6.30;46.30
1025;DHT22;501;48.214;11.350;2024-02-23T07:30:30;6.30;46.40
1025;DHT22;501;48.214;11.350;2024-02-23T07:32:56;6.30;46.40
1025;DHT22;501;48.214;11.350;2024-02-23T07:35:22;6.40;46.90
1025;DHT22;501;48.214;11.350;2024-02-23T07:37:47;6.40;47.80
1025;DHT22;501;48.214;11.350;2024-02-23T07:40:13;6.40;46.50
1025;DHT22;501;48.214;11.350;2024-02-23T07:42:39;6.40;47.50
1025;DHT22;501;48.214;11.350;2024-02-23T07:45:05;6.40;46.70
1025;DHT22;501;48.214;11.350;2024-02-23T07:47:31;6.40;45.60
1025;DHT22;501;48.214;11.350;2024-02-23T07:49:58;6.40;46.20
1025;DHT22;501;48.214;11.350;2024-02-23T07:52:23;6.40;46.90
1025;DHT22;501;48.214;11.350;2024-02-23T07:54:50;6.40;46.30
1025;DHT22;501;48.214;11.350;2024-02-23T07:57:18;6.50;47.00
1025;DHT22;501;48.214;11.350;2024-02-23T07:59:44;6.50;46.70
1025;DHT22;501;48.214;11.350;2024-02-23T08:02:09;6.60;47.10
1025;DHT22;501;48.214;11.350;2024-02-23T08:04:35;6.60;45.20
1025;DHT22;501;48.214;11.350;2024-02-23T08:07:01;6.60;44.30
1025;DHT22;501;48.214;11.350;2024-02-23T08:09:26;6.60;45.00
1025;DHT22;501;48.214;11.350;2024-02-23T08:11:52;6.60;44.90
1025;DHT22;501;48.214;11.350;2024-02-23T08:14:18;6.70;45.20
1025;DHT22;501;48.214;11.350;2024-02-23T08:16:43;6.70;44.70
1025;DHT22;501;48.214;11.350;2024-02-23T08:19:09;6.70;45.00
1025;DHT22;501;48.214;11.350;2024-02-23T08:21:34;6.80;45.10
1025;DHT22;501;48.214;11.350;2024-02-23T08:24:00;6.80;45.40
1025;DHT22;501;48.214;11.350;2024-02-23T08:26:26;6.90;45.20
1025;DHT22;501;48.214;11.350;2024-02-23T08:28:51;6.90;44.80
1025;DHT22;501;48.214;11.350;2024-02-23T08:31:17;6.90;44.60
1025;DHT22;501;48.214;11.350;2024-02-23T08:33:42;7.00;43.70
1025;DHT22;501;48.214;11.350;2024-02-23T08:36:08;7.00;43.00
1025;DHT22;501;48.214;11.350;2024-02-23T08:38:35;7.00;43.00
1025;DHT22;501;48.214;11.350;2024-02-23T08:41:02;7.00;42.30
1025;DHT22;501;48.214;11.350;2024-02-23T08:43:28;7.00;41.80
1025;DHT22;501;48.214;11.350;2024-02-23T08:45:53;6.90;40.80
1025;DHT22;501;48.214;11.350;2024-02-23T08:48:19;6.90;41.30
1025;DHT22;501;48.214;11.350;2024-02-23T08:50:45;6.90;40.70
1025;DHT22;501;48.214;11.350;2024-02-23T08:53:11;6.90;40.70
1025;DHT22;501;48.214;11.350;2024-02-23T08:55:36;6.90;40.50
1025;DHT22;501;48.214;11.350;2024-02-23T08:58:02;6.90;40.20
1025;DHT22;501;48.214;11.350;2024-02-23T09:00:28;6.80;39.90
1025;DHT22;501;48.214;11.350;2024-02-23T09:02:54;6.80;39.80
1025;DHT22;501;48.214;11.350;2024-02-23T09:05:19;6.80;40.20
1025;DHT22;501;48.214;11.350;2024-02-23T09:07:46;6.80;39.00
1025;DHT22;501;48.214;11.350;2024-02-23T09:10:12;6.70;39.20
1025;DHT22;501;48.214;11.350;2024-02-23T09:12:37;6.70;40.40
1025;DHT22;501;48.214;11.350;2024-02-23T09:15:04;6.80;40.90
1025;DHT22;501;48.214;11.350;2024-02-23T09:17:30;6.80;39.40
1025;DHT22;501;48.214;11.350;2024-02-23T09:19:56;6.80;39.90
1025;DHT22;501;48.214;11.350;2024-02-23T09:22:21;6.70;38.30
1025;DHT22;501;48.214;11.350;2024-02-23T09:24:48;6.60;38.30
1025;DHT22;501;48.214;11.350;2024-02-23T09:27:13;6.70;38.30
1025;DHT22;501;48.214;11.350;2024-02-23T09:29:40;6.70;38.30
1025;DHT22;501;48.214;11.350;2024-02-23T09:32:07;6.70;38.40
1025;DHT22;501;48.214;11.350;2024-02-23T09:34:32;6.70;39.10
1025;DHT22;501;48.214;11.350;2024-02-23T09:36:58;6.70;38.30
1025;DHT22;501;48.214;11.350;2024-02-23T09:39:24;6.70;38.30
1025;DHT22;501;48.214;11.350;2024-02-23T09:41:51;6.80;38.10
1025;DHT22;501;48.214;11.350;2024-02-23T09:44:20;6.70;38.20
1025;DHT22;501;48.214;11.350;2024-02-23T09:46:47;6.80;38.30
1025;DHT22;501;48.214;11.350;2024-02-23T09:49:14;6.80;38.60
1025;DHT22;501;48.214;11.350;2024-02-23T09:51:40;6.90;38.60
1025;DHT22;501;48.214;11.350;2024-02-23T09:54:07;6.90;38.50
1025;DHT22;501;48.214;11.350;2024-02-23T09:56:33;6.90;39.50
1025;DHT22;501;48.214;11.350;2024-02-23T09:59:01;6.90;39.50
1025;DHT22;501;48.214;11.350;2024-02-23T10:01:32;7.00;40.40
1025;DHT22;501;48.214;11.350;2024-02-23T10:04:02;7.10;40.40
1025;DHT22;501;48.214;11.350;2024-02-23T10:06:30;7.10;40.20
1025;DHT22;501;48.214;11.350;2024-02-23T10:08:56;7.20;39.50
1025;DHT22;501;48.214;11.350;2024-02-23T10:11:22;7.20;39.70
1025;DHT22;501;48.214;11.350;2024-02-23T10:13:49;7.20;38.70
1025;DHT22;501;48.214;11.350;2024-02-23T10:16:15;7.20;38.80
1025;DHT22;501;48.214;11.350;2024-02-23T10:18:41;7.30;39.40
1025;DHT22;501;48.214;11.350;2024-02-23T10:21:07;7.30;39.70
1025;DHT22;501;48.214;11.350;2024-02-23T10:23:32;7.40;38.90
1025;DHT22;501;48.214;11.350;2024-02-23T10:25:58;7.40;39.00
1025;DHT22;501;48.214;11.350;2024-02-23T10:28:24;7.50;39.00
1025;DHT22;501;48.214;11.350;2024-02-23T10:30:50;7.50;39.00
1025;DHT22;501;48.214;11.350;2024-02-23T10:33:19;7.50;36.20
1025;DHT22;501;48.214;11.350;2024-02-23T10:35:52;7.50;37.30
1025;DHT22;501;48.214;11.350;2024-02-23T10:38:21;7.50;35.20
1025;DHT22;501;48.214;11.350;2024-02-23T10:40:48;7.50;36.00
1025;DHT22;501;48.214;11.350;2024-02-23T10:43:19;7.50;35.10
1025;DHT22;501;48.214;11.350;2024-02-23T10:45:46;7.60;36.10
1025;DHT22;501;48.214;11.350;2024-02-23T10:48:12;7.60;36.00
1025;DHT22;501;48.214;11.350;2024-02-23T10:50:41;7.60;36.50
1025;DHT22;501;48.214;11.350;2024-02-23T10:53:10;7.70;37.60
1025;DHT22;501;48.214;11.350;2024-02-23T10:55:37;7.70;35.30
1025;DHT22;501;48.214;11.350;2024-02-23T10:58:06;7.70;35.70
1025;DHT22;501;48.214;11.350;2024-02-23T11:00:37;7.70;36.40
1025;DHT22;501;48.214;11.350;2024-02-23T11:03:03;7.70;36.00
1025;DHT22;501;48.214;11.350;2024-02-23T11:05:31;7.70;35.50
1025;DHT22;501;48.214;11.350;2024-02-23T11:07:56;7.70;36.20
1025;DHT22;501;48.214;11.350;2024-02-23T11:10:23;7.70;36.70
1025;DHT22;501;48.214;11.350;2024-02-23T11:13:00;7.70;37.20
1025;DHT22;501;48.214;11.350;2024-02-23T11:15:27;7.70;36.00
1025;DHT22;501;48.214;11.350;2024-02-23T11:17:54;7.70;37.20
1025;DHT22;501;48.214;11.350;2024-02-23T11:20:20;7.80;37.50
1025;DHT22;501;48.214;11.350;2024-02-23T11:22:52;7.70;37.60
1025;DHT22;501;48.214;11.350;2024-02-23T11:25:19;7.80;37.40
1025;DHT22;501;48.214;11.350;2024-02-23T11:27:49;7.80;36.10
1025;DHT22;501;48.214;11.350;2024-02-23T11:30:17;7.80;35.80
1025;DHT22;501;48.214;11.350;2024-02-23T11:32:47;7.90;36.60
1025;DHT22;501;48.214;11.350;2024-02-23T11:35:15;7.90;36.60
1025;DHT22;501;48.214;11.350;2024-02-23T11:40:16;7.90;36.50
1025;DHT22;501;48.214;11.350;2024-02-23T11:42:43;7.90;35.60
1025;DHT22;501;48.214;11.350;2024-02-23T11:45:09;7.80;35.50
1025;DHT22;501;48.214;11.350;2024-02-23T11:47:37;7.80;35.50
1025;DHT22;501;48.214;11.350;2024-02-23T11:50:04;7.80;35.20
1025;DHT22;501;48.214;11.350;2024-02-23T11:52:32;7.80;35.20
1025;DHT22;501;48.214;11.350;2024-02-23T11:54:57;7.80;35.40
1025;DHT22;501;48.214;11.350;2024-02-23T11:57:24;7.70;35.90
1025;DHT22;501;48.214;11.350;2024-02-23T11:59:51;7.70;35.90
1025;DHT22;501;48.214;11.350;2024-02-23T12:02:17;7.60;36.20
1025;DHT22;501;48.214;11.350;2024-02-23T12:04:43;7.60;35.60
1025;DHT22;501;48.214;11.350;2024-02-23T12:07:09;7.40;36.30
1025;DHT22;501;48.214;11.350;2024-02-23T12:09:35;7.40;36.60
1025;DHT22;501;48.214;11.350;2024-02-23T12:12:01;7.30;36.50
1025;DHT22;501;48.214;11.350;2024-02-23T12:14:27;7.30;37.10
1025;DHT22;501;48.214;11.350;2024-02-23T12:16:53;7.30;37.60
1025;DHT22;501;48.214;11.350;2024-02-23T12:19:19;7.30;37.80
1025;DHT22;501;48.214;11.350;2024-02-23T12:21:47;7.30;36.80
1025;DHT22;501;48.214;11.350;2024-02-23T12:24:13;7.20;36.10
1025;DHT22;501;48.214;11.350;2024-02-23T12:26:38;7.20;36.80
1025;DHT22;501;48.214;11.350;2024-02-23T12:29:05;7.20;36.60
1025;DHT22;501;48.214;11.350;2024-02-23T12:31:33;7.20;37.20
1025;DHT22;501;48.214;11.350;2024-02-23T12:34:00;7.10;36.60
1025;DHT22;501;48.214;11.350;2024-02-23T12:36:26;7.10;35.20
1025;DHT22;501;48.214;11.350;2024-02-23T12:38:51;7.00;35.60
1025;DHT22;501;48.214;11.350;2024-02-23T12:41:17;6.90;35.30
1025;DHT22;501;48.214;11.350;2024-02-23T12:43:43;6.90;36.40
1025;DHT22;501;48.214;11.350;2024-02-23T12:46:08;6.90;37.20
1025;DHT22;501;48.214;11.350;2024-02-23T12:48:37;6.90;37.40
1025;DHT22;501;48.214;11.350;2024-02-23T12:51:03;6.80;37.10
1025;DHT22;501;48.214;11.350;2024-02-23T12:56:03;6.90;36.60
1025;DHT22;501;48.214;11.350;2024-02-23T12:58:30;6.80;37.20
1025;DHT22;501;48.214;11.350;2024-02-23T13:00:56;6.90;37.30
1025;DHT22;501;48.214;11.350;2024-02-23T13:03:22;6.80;35.60
1025;DHT22;501;48.214;11.350;2024-02-23T13:05:48;6.80;36.50
1025;DHT22;501;48.214;11.350;2024-02-23T13:08:14;6.80;36.40
1025;DHT22;501;48.214;11.350;2024-02-23T13:10:40;6.80;36.40
1025;DHT22;501;48.214;11.350;2024-02-23T13:13:06;6.80;36.40
1025;DHT22;501;48.214;11.350;2024-02-23T13:15:31;6.80;37.40
1025;DHT22;501;48.214;11.350;2024-02-23T13:17:57;6.80;36.20
1025;DHT22;501;48.214;11.350;2024-02-23T13:20:23;6.80;36.50
1025;DHT22;501;48.214;11.350;2024-02-23T13:22:50;6.70;36.40
1025;DHT22;501;48.214;11.350;2024-02-23T13:25:15;6.70;36.90
1025;DHT22;501;48.214;11.350;2024-02-23T13:27:42;6.70;36.50
1025;DHT22;501;48.214;11.350;2024-02-23T13:30:08;6.70;36.30
1025;DHT22;501;48.214;11.350;2024-02-23T13:32:34;6.60;35.80
1025;DHT22;501;48.214;11.350;2024-02-23T13:35:00;6.60;35.90
1025;DHT22;501;48.214;11.350;2024-02-23T13:37:29;6.60;36.60
1025;DHT22;501;48.214;11.350;2024-02-23T13:39:55;6.60;35.90
1025;DHT22;501;48.214;11.350;2024-02-23T13:42:21;6.50;36.90
1025;DHT22;501;48.214;11.350;2024-02-23T13:44:46;6.50;36.40
1025;DHT22;501;48.214;11.350;2024-02-23T13:47:12;6.60;37.10
1025;DHT22;501;48.214;11.350;2024-02-23T13:49:38;6.60;36.70
1025;DHT22;501;48.214;11.350;2024-02-23T13:52:04;6.70;35.70
1025;DHT22;501;48.214;11.350;2024-02-23T13:54:29;6.70;36.70
1025;DHT22;501;48.214;11.350;2024-02-23T13:56:55;6.70;35.20
1025;DHT22;501;48.214;11.350;2024-02-23T13:59:20;6.80;36.20
1025;DHT22;501;48.214;11.350;2024-02-23T14:01:46;6.80;36.10
1025;DHT22;501;48.214;11.350;2024-02-23T14:04:12;6.80;35.80
1025;DHT22;501;48.214;11.350;2024-02-23T14:06:38;6.80;36.00
1025;DHT22;501;48.214;11.350;2024-02-23T14:09:03;6.80;36.00
1025;DHT22;501;48.214;11.350;2024-02-23T14:11:29;6.90;36.10
1025;DHT22;501;48.214;11.350;2024-02-23T14:13:56;6.90;34.90
1025;DHT22;501;48.214;11.350;2024-02-23T14:16:22;6.80;34.70
1025;DHT22;501;48.214;11.350;2024-02-23T14:18:49;6.80;34.40
1025;DHT22;501;48.214;11.350;2024-02-23T14:21:15;6.80;35.10
1025;DHT22;501;48.214;11.350;2024-02-23T14:23:41;6.90;35.20
1025;DHT22;501;48.214;11.350;2024-02-23T14:26:07;6.90;35.50
1025;DHT22;501;48.214;11.350;2024-02-23T14:28:33;6.90;34.30
1025;DHT22;501;48.214;11.350;2024-02-23T14:30:59;6.80;34.60
1025;DHT22;501;48.214;11.350;2024-02-23T14:33:24;6.80;34.50
1025;DHT22;501;48.214;11.350;2024-02-23T14:35:50;6.80;33.90
1025;DHT22;501;48.214;11.350;2024-02-23T14:38:16;6.70;34.50
1025;DHT22;501;48.214;11.350;2024-02-23T14:40:42;6.70;34.00
1025;DHT22;501;48.214;11.350;2024-02-23T14:43:08;6.60;33.60
1025;DHT22;501;48.214;11.350;2024-02-23T14:45:35;6.60;34.00
1025;DHT22;501;48.214;11.350;2024-02-23T14:48:01;6.60;34.80
1025;DHT22;501;48.214;11.350;2024-02-23T14:50:27;6.50;34.40
1025;DHT22;501;48.214;11.350;2024-02-23T14:52:52;6.50;34.60
1025;DHT22;501;48.214;11.350;2024-02-23T14:55:19;6.60;34.90
1025;DHT22;501;48.214;11.350;2024-02-23T14:57:45;6.50;34.00
1025;DHT22;501;48.214;11.350;2024-02-23T15:00:11;6.50;34.50
1025;DHT22;501;48.214;11.350;2024-02-23T15:02:38;6.50;35.40
1025;DHT22;501;48.214;11.350;2024-02-23T15:05:05;6.50;36.10
1025;DHT22;501;48.214;11.350;2024-02-23T15:07:32;6.50;34.80
1025;DHT22;501;48.214;11.350;2024-02-23T15:09:58;6.60;35.00
1025;DHT22;501;48.214;11.350;2024-02-23T15:12:24;6.60;35.00
1025;DHT22;501;48.214;11.350;2024-02-23T15:14:53;6.60;35.00
1025;DHT22;501;48.214;11.350;2024-02-23T15:17:19;6.60;35.00
1025;DHT22;501;48.214;11.350;2024-02-23T15:19:45;6.60;34.90
1025;DHT22;501;48.214;11.350;2024-02-23T15:22:10;6.60;33.60
1025;DHT22;501;48.214;11.350;2024-02-23T15:24:40;6.60;33.70
1025;DHT22;501;48.214;11.350;2024-02-23T15:27:08;6.60;33.40
1025;DHT22;501;48.214;11.350;2024-02-23T15:29:34;6.50;33.90
1025;DHT22;501;48.214;11.350;2024-02-23T15:32:00;6.50;33.90
1025;DHT22;501;48.214;11.350;2024-02-23T15:34:26;6.50;33.60
1025;DHT22;501;48.214;11.350;2024-02-23T15:36:52;6.50;34.30
1025;DHT22;501;48.214;11.350;2024-02-23T15:39:17;6.40;34.10
1025;DHT22;501;48.214;11.350;2024-02-23T15:41:43;6.40;33.80
1025;DHT22;501;48.214;11.350;2024-02-23T15:44:09;6.40;33.30
1025;DHT22;501;48.214;11.350;2024-02-23T15:46:35;6.40;33.80
1025;DHT22;501;48.214;11.350;2024-02-23T15:49:00;6.40;34.10
1025;DHT22;501;48.214;11.350;2024-02-23T15:51:26;6.40;34.50
1025;DHT22;501;48.214;11.350;2024-02-23T15:53:52;6.40;34.70
1025;DHT22;501;48.214;11.350;2024-02-23T15:56:18;6.40;33.90
1025;DHT22;501;48.214;11.350;2024-02-23T15:58:43;6.30;34.50
1025;DHT22;501;48.214;11.350;2024-02-23T16:01:09;6.20;34.80
1025;DHT22;501;48.214;11.350;2024-02-23T16:03:35;6.20;35.00
1025;DHT22;501;48.214;11.350;2024-02-23T16:06:01;6.20;35.00
1025;DHT22;501;48.214;11.350;2024-02-23T16:08:43;6.20;34.50
1025;DHT22;501;48.214;11.350;2024-02-23T16:11:09;6.10;34.60
1025;DHT22;501;48.214;11.350;2024-02-23T16:13:39;6.10;34.50
1025;DHT22;501;48.214;11.350;2024-02-23T16:16:07;6.10;34.70